sensor_id;sensor_type;location;lat;lon;timestamp;temperature;humidity
11025;DHT22;22890;51.820;8.682;2022-07-29T00:01:49;19.30;95.80
11025;DHT22;22890;51.820;8.682;2022-07-29T00:04:19;19.20;95.80
11025;DHT22;22890;51.820;8.682;2022-07-29T00:06:47;19.20;96.00
11025;DHT22;22890;51.820;8.682;2022-07-29T00:09:14;19.20;96.10
11025;DHT22;22890;51.820;8.682;2022-07-29T00:11:41;19.20;96.30
11025;DHT22;22890;51.820;8.682;2022-07-29T00:14:08;19.10;96.60
11025;DHT22;22890;51.820;8.682;2022-07-29T00:16:35;19.10;96.60
11025;DHT22;22890;51.820;8.682;2022-07-29T00:19:02;19.20;96.80
11025;DHT22;22890;51.820;8.682;2022-07-29T00:21:29;19.00;96.70
11025;DHT22;22890;51.820;8.682;2022-07-29T00:23:56;19.10;96.80
11025;DHT22;22890;51.820;8.682;2022-07-29T00:26:22;19.00;96.50
11025;DHT22;22890;51.820;8.682;2022-07-29T00:28:49;19.00;96.70
11025;DHT22;22890;51.820;8.682;2022-07-29T00:31:16;19.00;96.80
11025;DHT22;22890;51.820;8.682;2022-07-29T00:33:42;19.00;97.10
11025;DHT22;22890;51.820;8.682;2022-07-29T00:36:09;18.90;97.40
11025;DHT22;22890;51.820;8.682;2022-07-29T00:38:35;19.00;97.60
11025;DHT22;22890;51.820;8.682;2022-07-29T00:41:02;18.90;97.60
11025;DHT22;22890;51.820;8.682;2022-07-29T00:43:29;18.80;97.40
11025;DHT22;22890;51.820;8.682;2022-07-29T00:45:55;18.80;97.30
11025;DHT22;22890;51.820;8.682;2022-07-29T00:48:22;18.80;97.20
11025;DHT22;22890;51.820;8.682;2022-07-29T00:50:49;18.80;97.20
11025;DHT22;22890;51.820;8.682;2022-07-29T00:53:16;18.80;97.70
11025;DHT22;22890;51.820;8.682;2022-07-29T00:55:43;19.00;97.90
11025;DHT22;22890;51.820;8.682;2022-07-29T00:58:12;18.80;97.70
11025;DHT22;22890;51.820;8.682;2022-07-29T01:00:38;18.80;97.50
11025;DHT22;22890;51.820;8.682;2022-07-29T01:03:07;18.90;97.10
11025;DHT22;22890;51.820;8.682;2022-07-29T01:05:35;18.80;96.90
11025;DHT22;22890;51.820;8.682;2022-07-29T01:08:17;18.80;96.70
11025;DHT22;22890;51.820;8.682;2022-07-29T01:10:45;18.80;96.60
11025;DHT22;22890;51.820;8.682;2022-07-29T01:13:14;18.80;96.60
11025;DHT22;22890;51.820;8.682;2022-07-29T01:15:49;18.80;96.60
11025;DHT22;22890;51.820;8.682;2022-07-29T01:18:34;18.80;96.40
11025;DHT22;22890;51.820;8.682;2022-07-29T01:24:30;18.80;95.80
11025;DHT22;22890;51.820;8.682;2022-07-29T01:29:45;18.80;95.80
11025;DHT22;22890;51.820;8.682;2022-07-29T01:32:23;18.90;95.70
11025;DHT22;22890;51.820;8.682;2022-07-29T01:35:04;18.90;95.70
11025;DHT22;22890;51.820;8.682;2022-07-29T01:37:39;18.90;95.60
11025;DHT22;22890;51.820;8.682;2022-07-29T01:40:27;19.10;95.50
11025;DHT22;22890;51.820;8.682;2022-07-29T01:42:58;19.00;95.40
11025;DHT22;22890;51.820;8.682;2022-07-29T01:45:41;19.00;95.20
11025;DHT22;22890;51.820;8.682;2022-07-29T01:48:24;19.00;95.10
11025;DHT22;22890;51.820;8.682;2022-07-29T01:51:04;19.00;95.20
11025;DHT22;22890;51.820;8.682;2022-07-29T01:53:38;19.00;95.20
11025;DHT22;22890;51.820;8.682;2022-07-29T01:56:10;19.00;95.20
11025;DHT22;22890;51.820;8.682;2022-07-29T01:58:40;19.00;95.30
11025;DHT22;22890;51.820;8.682;2022-07-29T02:01:09;19.10;95.40
11025;DHT22;22890;51.820;8.682;2022-07-29T02:03:37;19.10;95.30
11025;DHT22;22890;51.820;8.682;2022-07-29T02:06:07;19.10;95.20
11025;DHT22;22890;51.820;8.682;2022-07-29T02:08:34;19.10;95.10
11025;DHT22;22890;51.820;8.682;2022-07-29T02:11:03;19.10;95.10
11025;DHT22;22890;51.820;8.682;2022-07-29T02:13:32;19.10;95.10
11025;DHT22;22890;51.820;8.682;2022-07-29T02:16:01;19.10;95.10
11025;DHT22;22890;51.820;8.682;2022-07-29T02:18:30;19.10;95.10
11025;DHT22;22890;51.820;8.682;2022-07-29T02:20:58;19.20;95.10
11025;DHT22;22890;51.820;8.682;2022-07-29T02:23:26;19.20;95.20
11025;DHT22;22890;51.820;8.682;2022-07-29T02:25:55;19.10;95.20
11025;DHT22;22890;51.820;8.682;2022-07-29T02:28:25;19.10;95.20
11025;DHT22;22890;51.820;8.682;2022-07-29T02:30:58;19.10;95.20
11025;DHT22;22890;51.820;8.682;2022-07-29T02:33:25;19.10;95.30
11025;DHT22;22890;51.820;8.682;2022-07-29T02:35:53;19.10;95.50
11025;DHT22;22890;51.820;8.682;2022-07-29T02:38:21;19.10;95.60
11025;DHT22;22890;51.820;8.682;2022-07-29T02:41:18;19.10;95.50
11025;DHT22;22890;51.820;8.682;2022-07-29T02:43:48;19.20;95.50
11025;DHT22;22890;51.820;8.682;2022-07-29T02:46:20;19.10;95.40
11025;DHT22;22890;51.820;8.682;2022-07-29T02:48:59;19.20;95.50
11025;DHT22;22890;51.820;8.682;2022-07-29T02:51:33;19.10;95.40
11025;DHT22;22890;51.820;8.682;2022-07-29T02:54:14;19.10;95.50
11025;DHT22;22890;51.820;8.682;2022-07-29T02:56:45;19.00;95.50
11025;DHT22;22890;51.820;8.682;2022-07-29T02:59:13;19.00;95.60
11025;DHT22;22890;51.820;8.682;2022-07-29T03:01:42;19.00;95.70
11025;DHT22;22890;51.820;8.682;2022-07-29T03:04:11;19.00;95.90
11025;DHT22;22890;51.820;8.682;2022-07-29T03:06:40;18.90;96.30
11025;DHT22;22890;51.820;8.682;2022-07-29T03:09:07;18.90;95.80
11025;DHT22;22890;51.820;8.682;2022-07-29T03:11:39;19.00;95.80
11025;DHT22;22890;51.820;8.682;2022-07-29T03:14:19;19.00;95.70
11025;DHT22;22890;51.820;8.682;2022-07-29T03:16:47;19.00;95.80
11025;DHT22;22890;51.820;8.682;2022-07-29T03:19:15;19.00;95.80
11025;DHT22;22890;51.820;8.682;2022-07-29T03:21:42;19.00;95.80
11025;DHT22;22890;51.820;8.682;2022-07-29T03:24:09;18.90;95.80
11025;DHT22;22890;51.820;8.682;2022-07-29T03:26:36;18.90;95.80
11025;DHT22;22890;51.820;8.682;2022-07-29T03:29:03;18.90;95.80
11025;DHT22;22890;51.820;8.682;2022-07-29T03:31:30;18.90;95.80
11025;DHT22;22890;51.820;8.682;2022-07-29T03:33:59;18.80;95.80
11025;DHT22;22890;51.820;8.682;2022-07-29T03:36:25;18.80;95.90
11025;DHT22;22890;51.820;8.682;2022-07-29T03:38:52;19.00;96.00
11025;DHT22;22890;51.820;8.682;2022-07-29T03:41:20;18.80;95.90
11025;DHT22;22890;51.820;8.682;2022-07-29T03:43:49;18.80;96.00
11025;DHT22;22890;51.820;8.682;2022-07-29T03:46:20;18.80;96.00
11025;DHT22;22890;51.820;8.682;2022-07-29T03:48:50;18.80;95.90
11025;DHT22;22890;51.820;8.682;2022-07-29T03:51:19;18.80;95.80
11025;DHT22;22890;51.820;8.682;2022-07-29T03:54:00;18.80;95.80
11025;DHT22;22890;51.820;8.682;2022-07-29T03:56:42;18.80;95.80
11025;DHT22;22890;51.820;8.682;2022-07-29T03:59:11;18.80;95.80
11025;DHT22;22890;51.820;8.682;2022-07-29T04:01:39;18.80;95.90
11025;DHT22;22890;51.820;8.682;2022-07-29T04:04:07;18.90;96.10
11025;DHT22;22890;51.820;8.682;2022-07-29T04:06:41;18.70;96.20
11025;DHT22;22890;51.820;8.682;2022-07-29T04:09:09;18.70;96.20
11025;DHT22;22890;51.820;8.682;2022-07-29T04:11:39;18.80;96.30
11025;DHT22;22890;51.820;8.682;2022-07-29T04:14:26;18.70;96.30
11025;DHT22;22890;51.820;8.682;2022-07-29T04:16:53;18.70;96.20
11025;DHT22;22890;51.820;8.682;2022-07-29T04:19:20;18.70;96.10
11025;DHT22;22890;51.820;8.682;2022-07-29T04:21:46;18.80;96.20
11025;DHT22;22890;51.820;8.682;2022-07-29T04:24:13;18.70;96.10
11025;DHT22;22890;51.820;8.682;2022-07-29T04:26:40;18.90;96.20
11025;DHT22;22890;51.820;8.682;2022-07-29T04:29:07;18.70;96.30
11025;DHT22;22890;51.820;8.682;2022-07-29T04:31:34;18.70;96.40
11025;DHT22;22890;51.820;8.682;2022-07-29T04:34:00;18.70;96.70
11025;DHT22;22890;51.820;8.682;2022-07-29T04:36:27;18.70;96.80
11025;DHT22;22890;51.820;8.682;2022-07-29T04:38:55;18.70;96.70
11025;DHT22;22890;51.820;8.682;2022-07-29T04:41:22;18.80;96.80
11025;DHT22;22890;51.820;8.682;2022-07-29T04:43:58;18.80;96.90
11025;DHT22;22890;51.820;8.682;2022-07-29T04:46:27;18.70;96.80
11025;DHT22;22890;51.820;8.682;2022-07-29T04:48:54;18.80;96.70
11025;DHT22;22890;51.820;8.682;2022-07-29T04:51:20;18.90;96.60
11025;DHT22;22890;51.820;8.682;2022-07-29T04:53:47;18.80;96.60
11025;DHT22;22890;51.820;8.682;2022-07-29T04:56:14;18.80;96.60
11025;DHT22;22890;51.820;8.682;2022-07-29T04:58:40;18.80;96.50
11025;DHT22;22890;51.820;8.682;2022-07-29T05:01:07;18.80;96.40
11025;DHT22;22890;51.820;8.682;2022-07-29T05:03:34;19.00;96.50
11025;DHT22;22890;51.820;8.682;2022-07-29T05:06:00;19.00;96.40
11025;DHT22;22890;51.820;8.682;2022-07-29T05:08:27;18.90;96.30
11025;DHT22;22890;51.820;8.682;2022-07-29T05:10:54;18.90;96.30
11025;DHT22;22890;51.820;8.682;2022-07-29T05:13:20;18.90;96.30
11025;DHT22;22890;51.820;8.682;2022-07-29T05:15:47;19.00;96.30
11025;DHT22;22890;51.820;8.682;2022-07-29T05:18:14;19.00;96.30
11025;DHT22;22890;51.820;8.682;2022-07-29T05:20:40;19.00;96.20
11025;DHT22;22890;51.820;8.682;2022-07-29T05:23:07;19.00;96.20
11025;DHT22;22890;51.820;8.682;2022-07-29T05:25:34;19.00;96.10
11025;DHT22;22890;51.820;8.682;2022-07-29T05:28:10;19.10;96.10
11025;DHT22;22890;51.820;8.682;2022-07-29T05:30:36;19.10;96.40
11025;DHT22;22890;51.820;8.682;2022-07-29T05:33:03;19.10;96.00
11025;DHT22;22890;51.820;8.682;2022-07-29T05:35:30;19.20;96.00
11025;DHT22;22890;51.820;8.682;2022-07-29T05:37:56;19.10;95.90
11025;DHT22;22890;51.820;8.682;2022-07-29T05:40:23;19.20;96.00
11025;DHT22;22890;51.820;8.682;2022-07-29T05:42:50;19.20;96.10
11025;DHT22;22890;51.820;8.682;2022-07-29T05:45:16;19.30;96.20
11025;DHT22;22890;51.820;8.682;2022-07-29T05:47:43;19.30;96.10
11025;DHT22;22890;51.820;8.682;2022-07-29T05:50:10;19.30;96.20
11025;DHT22;22890;51.820;8.682;2022-07-29T05:52:36;19.30;96.30
11025;DHT22;22890;51.820;8.682;2022-07-29T05:55:03;19.30;96.30
11025;DHT22;22890;51.820;8.682;2022-07-29T05:57:31;19.30;96.20
11025;DHT22;22890;51.820;8.682;2022-07-29T05:59:58;19.30;96.30
11025;DHT22;22890;51.820;8.682;2022-07-29T06:02:25;19.30;96.40
11025;DHT22;22890;51.820;8.682;2022-07-29T06:04:52;19.30;96.30
11025;DHT22;22890;51.820;8.682;2022-07-29T06:07:19;19.30;96.30
11025;DHT22;22890;51.820;8.682;2022-07-29T06:09:45;19.40;96.30
11025;DHT22;22890;51.820;8.682;2022-07-29T06:12:12;19.40;96.40
11025;DHT22;22890;51.820;8.682;2022-07-29T06:14:39;19.40;96.50
11025;DHT22;22890;51.820;8.682;2022-07-29T06:17:05;19.40;96.40
11025;DHT22;22890;51.820;8.682;2022-07-29T06:19:34;19.50;96.40
11025;DHT22;22890;51.820;8.682;2022-07-29T06:22:02;19.50;96.40
11025;DHT22;22890;51.820;8.682;2022-07-29T06:24:29;19.50;96.40
11025;DHT22;22890;51.820;8.682;2022-07-29T06:26:55;19.60;96.40
11025;DHT22;22890;51.820;8.682;2022-07-29T06:29:22;19.60;96.40
11025;DHT22;22890;51.820;8.682;2022-07-29T06:31:49;19.70;96.50
11025;DHT22;22890;51.820;8.682;2022-07-29T06:34:15;19.80;96.60
11025;DHT22;22890;51.820;8.682;2022-07-29T06:36:43;19.80;96.60
11025;DHT22;22890;51.820;8.682;2022-07-29T06:39:11;19.80;96.70
11025;DHT22;22890;51.820;8.682;2022-07-29T06:41:38;19.80;96.80
11025;DHT22;22890;51.820;8.682;2022-07-29T06:44:05;19.90;97.10
11025;DHT22;22890;51.820;8.682;2022-07-29T06:46:31;19.90;97.20
11025;DHT22;22890;51.820;8.682;2022-07-29T06:48:59;20.00;97.20
11025;DHT22;22890;51.820;8.682;2022-07-29T06:51:28;20.20;97.20
11025;DHT22;22890;51.820;8.682;2022-07-29T06:53:54;20.10;97.10
11025;DHT22;22890;51.820;8.682;2022-07-29T06:56:32;20.10;97.10
11025;DHT22;22890;51.820;8.682;2022-07-29T06:59:06;20.10;97.10
11025;DHT22;22890;51.820;8.682;2022-07-29T07:01:33;20.10;97.10
11025;DHT22;22890;51.820;8.682;2022-07-29T07:04:01;20.20;97.20
11025;DHT22;22890;51.820;8.682;2022-07-29T07:06:28;20.30;97.20
11025;DHT22;22890;51.820;8.682;2022-07-29T07:08:54;20.30;97.30
11025;DHT22;22890;51.820;8.682;2022-07-29T07:11:21;20.40;97.30
11025;DHT22;22890;51.820;8.682;2022-07-29T07:13:48;20.50;97.10
11025;DHT22;22890;51.820;8.682;2022-07-29T07:16:14;20.60;97.20
11025;DHT22;22890;51.820;8.682;2022-07-29T07:18:41;20.80;97.40
11025;DHT22;22890;51.820;8.682;2022-07-29T07:21:08;20.90;97.10
11025;DHT22;22890;51.820;8.682;2022-07-29T07:23:35;21.00;96.70
11025;DHT22;22890;51.820;8.682;2022-07-29T07:26:01;21.20;96.70
11025;DHT22;22890;51.820;8.682;2022-07-29T07:28:29;21.40;96.60
11025;DHT22;22890;51.820;8.682;2022-07-29T07:30:56;21.50;96.50
11025;DHT22;22890;51.820;8.682;2022-07-29T07:33:22;21.50;96.20
11025;DHT22;22890;51.820;8.682;2022-07-29T07:35:49;21.70;96.10
11025;DHT22;22890;51.820;8.682;2022-07-29T07:38:16;21.60;95.90
11025;DHT22;22890;51.820;8.682;2022-07-29T07:40:42;21.70;96.00
11025;DHT22;22890;51.820;8.682;2022-07-29T07:43:09;21.80;96.20
11025;DHT22;22890;51.820;8.682;2022-07-29T07:45:36;21.90;95.60
11025;DHT22;22890;51.820;8.682;2022-07-29T07:48:04;21.80;95.50
11025;DHT22;22890;51.820;8.682;2022-07-29T07:50:31;21.80;95.30
11025;DHT22;22890;51.820;8.682;2022-07-29T07:52:58;21.80;95.50
11025;DHT22;22890;51.820;8.682;2022-07-29T07:55:26;21.80;95.80
11025;DHT22;22890;51.820;8.682;2022-07-29T07:57:53;21.90;95.90
11025;DHT22;22890;51.820;8.682;2022-07-29T08:00:21;21.80;95.60
11025;DHT22;22890;51.820;8.682;2022-07-29T08:02:49;21.70;95.80
11025;DHT22;22890;51.820;8.682;2022-07-29T08:05:17;21.70;95.90
11025;DHT22;22890;51.820;8.682;2022-07-29T08:07:45;21.60;96.00
11025;DHT22;22890;51.820;8.682;2022-07-29T08:10:14;21.60;96.10
11025;DHT22;22890;51.820;8.682;2022-07-29T08:12:41;21.60;96.40
11025;DHT22;22890;51.820;8.682;2022-07-29T08:15:08;21.60;96.70
11025;DHT22;22890;51.820;8.682;2022-07-29T08:17:35;21.70;97.00
11025;DHT22;22890;51.820;8.682;2022-07-29T08:20:02;21.80;97.30
11025;DHT22;22890;51.820;8.682;2022-07-29T08:22:29;22.00;97.30
11025;DHT22;22890;51.820;8.682;2022-07-29T08:24:56;21.20;96.40
11025;DHT22;22890;51.820;8.682;2022-07-29T08:27:23;22.00;96.70
11025;DHT22;22890;51.820;8.682;2022-07-29T08:30:09;22.00;96.90
11025;DHT22;22890;51.820;8.682;2022-07-29T08:32:36;22.00;97.20
11025;DHT22;22890;51.820;8.682;2022-07-29T08:35:20;22.10;97.30
11025;DHT22;22890;51.820;8.682;2022-07-29T08:37:47;22.10;97.00
11025;DHT22;22890;51.820;8.682;2022-07-29T08:40:13;22.10;96.90
11025;DHT22;22890;51.820;8.682;2022-07-29T08:42:40;22.20;97.00
11025;DHT22;22890;51.820;8.682;2022-07-29T08:45:08;22.20;97.00
11025;DHT22;22890;51.820;8.682;2022-07-29T08:47:35;22.20;97.00
11025;DHT22;22890;51.820;8.682;2022-07-29T08:50:07;22.20;97.00
11025;DHT22;22890;51.820;8.682;2022-07-29T08:52:39;22.20;96.70
11025;DHT22;22890;51.820;8.682;2022-07-29T08:55:08;22.10;96.60
11025;DHT22;22890;51.820;8.682;2022-07-29T08:57:37;22.10;96.70
11025;DHT22;22890;51.820;8.682;2022-07-29T09:00:17;22.10;96.20
11025;DHT22;22890;51.820;8.682;2022-07-29T09:02:47;22.00;96.30
11025;DHT22;22890;51.820;8.682;2022-07-29T09:05:18;21.90;96.40
11025;DHT22;22890;51.820;8.682;2022-07-29T09:07:45;21.80;96.40
11025;DHT22;22890;51.820;8.682;2022-07-29T09:14:40;21.60;95.70
11025;DHT22;22890;51.820;8.682;2022-07-29T09:17:07;21.50;95.80
11025;DHT22;22890;51.820;8.682;2022-07-29T09:19:36;21.50;96.00
11025;DHT22;22890;51.820;8.682;2022-07-29T09:22:04;21.40;96.20
11025;DHT22;22890;51.820;8.682;2022-07-29T09:27:01;21.40;96.40
11025;DHT22;22890;51.820;8.682;2022-07-29T09:29:28;21.50;96.40
11025;DHT22;22890;51.820;8.682;2022-07-29T09:31:59;21.60;96.50
11025;DHT22;22890;51.820;8.682;2022-07-29T09:34:28;21.60;96.30
11025;DHT22;22890;51.820;8.682;2022-07-29T09:36:56;21.60;96.30
11025;DHT22;22890;51.820;8.682;2022-07-29T09:39:29;21.70;96.40
11025;DHT22;22890;51.820;8.682;2022-07-29T09:41:59;21.70;96.60
11025;DHT22;22890;51.820;8.682;2022-07-29T09:44:26;21.70;96.60
11025;DHT22;22890;51.820;8.682;2022-07-29T09:47:00;21.70;96.30
11025;DHT22;22890;51.820;8.682;2022-07-29T09:49:45;21.80;96.30
11025;DHT22;22890;51.820;8.682;2022-07-29T09:52:16;21.80;96.20
11025;DHT22;22890;51.820;8.682;2022-07-29T09:54:43;21.80;96.30
11025;DHT22;22890;51.820;8.682;2022-07-29T09:57:25;21.80;96.60
11025;DHT22;22890;51.820;8.682;2022-07-29T10:00:25;21.80;96.30
11025;DHT22;22890;51.820;8.682;2022-07-29T10:02:59;21.90;96.40
11025;DHT22;22890;51.820;8.682;2022-07-29T10:05:27;22.00;96.50
11025;DHT22;22890;51.820;8.682;2022-07-29T10:08:02;22.00;96.70
11025;DHT22;22890;51.820;8.682;2022-07-29T10:10:33;22.10;97.20
11025;DHT22;22890;51.820;8.682;2022-07-29T10:13:04;22.10;96.60
11025;DHT22;22890;51.820;8.682;2022-07-29T10:15:40;22.20;96.50
11025;DHT22;22890;51.820;8.682;2022-07-29T10:18:12;22.20;96.40
11025;DHT22;22890;51.820;8.682;2022-07-29T10:20:40;22.30;96.70
11025;DHT22;22890;51.820;8.682;2022-07-29T10:23:06;22.30;96.40
11025;DHT22;22890;51.820;8.682;2022-07-29T10:25:33;22.30;96.20
11025;DHT22;22890;51.820;8.682;2022-07-29T10:28:00;22.40;96.10
11025;DHT22;22890;51.820;8.682;2022-07-29T10:30:27;22.40;96.10
11025;DHT22;22890;51.820;8.682;2022-07-29T10:33:05;21.30;95.70
11025;DHT22;22890;51.820;8.682;2022-07-29T10:38:49;22.60;96.00
11025;DHT22;22890;51.820;8.682;2022-07-29T10:44:07;22.70;96.40
11025;DHT22;22890;51.820;8.682;2022-07-29T10:46:43;22.80;96.50
11025;DHT22;22890;51.820;8.682;2022-07-29T10:49:20;22.80;96.60
11025;DHT22;22890;51.820;8.682;2022-07-29T10:54:18;23.00;96.30
11025;DHT22;22890;51.820;8.682;2022-07-29T10:56:45;23.00;96.40
11025;DHT22;22890;51.820;8.682;2022-07-29T11:01:47;23.10;96.00
11025;DHT22;22890;51.820;8.682;2022-07-29T11:07:12;23.40;96.30
11025;DHT22;22890;51.820;8.682;2022-07-29T11:09:40;23.40;96.10
11025;DHT22;22890;51.820;8.682;2022-07-29T11:15:09;23.50;95.80
11025;DHT22;22890;51.820;8.682;2022-07-29T11:20:42;23.50;95.80
11025;DHT22;22890;51.820;8.682;2022-07-29T11:23:27;23.50;95.80
11025;DHT22;22890;51.820;8.682;2022-07-29T11:26:18;23.60;95.90
11025;DHT22;22890;51.820;8.682;2022-07-29T11:28:57;23.60;95.90
11025;DHT22;22890;51.820;8.682;2022-07-29T11:31:43;23.70;96.20
11025;DHT22;22890;51.820;8.682;2022-07-29T11:47:54;24.00;96.00
11025;DHT22;22890;51.820;8.682;2022-07-29T11:50:34;24.00;95.90
11025;DHT22;22890;51.820;8.682;2022-07-29T11:53:09;24.10;96.00
11025;DHT22;22890;51.820;8.682;2022-07-29T11:55:38;24.10;96.00
11025;DHT22;22890;51.820;8.682;2022-07-29T11:58:21;24.10;96.10
11025;DHT22;22890;51.820;8.682;2022-07-29T12:00:52;24.20;96.10
11025;DHT22;22890;51.820;8.682;2022-07-29T12:03:26;24.20;96.30
11025;DHT22;22890;51.820;8.682;2022-07-29T12:06:23;24.30;96.10
11025;DHT22;22890;51.820;8.682;2022-07-29T12:08:48;24.30;96.10
11025;DHT22;22890;51.820;8.682;2022-07-29T12:11:17;24.40;96.50
11025;DHT22;22890;51.820;8.682;2022-07-29T12:13:47;24.50;96.50
11025;DHT22;22890;51.820;8.682;2022-07-29T12:16:15;24.60;96.40
11025;DHT22;22890;51.820;8.682;2022-07-29T12:19:00;24.70;95.90
11025;DHT22;22890;51.820;8.682;2022-07-29T12:21:29;24.70;95.80
11025;DHT22;22890;51.820;8.682;2022-07-29T12:23:57;24.70;95.70
11025;DHT22;22890;51.820;8.682;2022-07-29T12:26:34;24.80;95.90
11025;DHT22;22890;51.820;8.682;2022-07-29T12:29:01;24.80;95.80
11025;DHT22;22890;51.820;8.682;2022-07-29T12:31:28;24.90;95.90
11025;DHT22;22890;51.820;8.682;2022-07-29T12:34:14;25.00;95.70
11025;DHT22;22890;51.820;8.682;2022-07-29T12:36:42;25.00;95.00
11025;DHT22;22890;51.820;8.682;2022-07-29T12:39:10;25.00;95.00
11025;DHT22;22890;51.820;8.682;2022-07-29T12:41:38;25.10;95.50
11025;DHT22;22890;51.820;8.682;2022-07-29T12:44:05;25.20;95.20
11025;DHT22;22890;51.820;8.682;2022-07-29T12:46:32;25.20;95.00
11025;DHT22;22890;51.820;8.682;2022-07-29T12:48:59;25.30;95.10
11025;DHT22;22890;51.820;8.682;2022-07-29T12:51:36;25.30;94.70
11025;DHT22;22890;51.820;8.682;2022-07-29T12:54:09;25.30;94.30
11025;DHT22;22890;51.820;8.682;2022-07-29T12:56:38;25.30;94.40
11025;DHT22;22890;51.820;8.682;2022-07-29T13:01:39;25.40;94.40
11025;DHT22;22890;51.820;8.682;2022-07-29T13:04:06;25.50;94.60
11025;DHT22;22890;51.820;8.682;2022-07-29T13:06:41;25.60;94.70
11025;DHT22;22890;51.820;8.682;2022-07-29T13:09:17;25.70;95.00
11025;DHT22;22890;51.820;8.682;2022-07-29T13:11:46;25.80;95.00
11025;DHT22;22890;51.820;8.682;2022-07-29T13:14:30;25.80;94.20
11025;DHT22;22890;51.820;8.682;2022-07-29T13:17:16;25.80;93.70
11025;DHT22;22890;51.820;8.682;2022-07-29T13:20:04;25.90;93.90
11025;DHT22;22890;51.820;8.682;2022-07-29T13:22:34;25.90;93.90
11025;DHT22;22890;51.820;8.682;2022-07-29T13:25:01;26.00;93.70
11025;DHT22;22890;51.820;8.682;2022-07-29T13:27:30;26.00;93.80
11025;DHT22;22890;51.820;8.682;2022-07-29T13:30:00;26.10;94.30
11025;DHT22;22890;51.820;8.682;2022-07-29T13:32:29;26.10;93.80
11025;DHT22;22890;51.820;8.682;2022-07-29T13:34:58;26.20;93.80
11025;DHT22;22890;51.820;8.682;2022-07-29T13:37:26;26.20;93.60
11025;DHT22;22890;51.820;8.682;2022-07-29T13:39:52;26.30;93.20
11025;DHT22;22890;51.820;8.682;2022-07-29T13:42:20;26.30;93.00
11025;DHT22;22890;51.820;8.682;2022-07-29T13:44:47;26.40;92.80
11025;DHT22;22890;51.820;8.682;2022-07-29T13:47:15;26.30;92.70
11025;DHT22;22890;51.820;8.682;2022-07-29T13:49:42;26.40;92.90
11025;DHT22;22890;51.820;8.682;2022-07-29T13:52:09;26.40;93.20
11025;DHT22;22890;51.820;8.682;2022-07-29T13:54:36;26.50;93.60
11025;DHT22;22890;51.820;8.682;2022-07-29T13:57:09;26.60;93.40
11025;DHT22;22890;51.820;8.682;2022-07-29T13:59:37;26.60;93.20
11025;DHT22;22890;51.820;8.682;2022-07-29T14:02:03;26.70;93.10
11025;DHT22;22890;51.820;8.682;2022-07-29T14:04:32;26.70;92.90
11025;DHT22;22890;51.820;8.682;2022-07-29T14:06:58;26.70;92.60
11025;DHT22;22890;51.820;8.682;2022-07-29T14:09:29;26.70;92.50
11025;DHT22;22890;51.820;8.682;2022-07-29T14:12:06;26.70;92.60
11025;DHT22;22890;51.820;8.682;2022-07-29T14:14:33;26.70;91.90
11025;DHT22;22890;51.820;8.682;2022-07-29T14:17:02;26.80;92.00
11025;DHT22;22890;51.820;8.682;2022-07-29T14:19:29;26.90;92.10
11025;DHT22;22890;51.820;8.682;2022-07-29T14:21:58;26.90;92.10
11025;DHT22;22890;51.820;8.682;2022-07-29T14:24:25;26.90;91.80
11025;DHT22;22890;51.820;8.682;2022-07-29T14:26:52;27.00;92.10
11025;DHT22;22890;51.820;8.682;2022-07-29T14:29:19;27.00;91.90
11025;DHT22;22890;51.820;8.682;2022-07-29T14:31:45;27.00;91.50
11025;DHT22;22890;51.820;8.682;2022-07-29T14:34:12;27.10;91.80
11025;DHT22;22890;51.820;8.682;2022-07-29T14:36:38;27.10;92.40
11025;DHT22;22890;51.820;8.682;2022-07-29T14:39:05;27.10;92.70
11025;DHT22;22890;51.820;8.682;2022-07-29T14:41:32;27.10;92.80
11025;DHT22;22890;51.820;8.682;2022-07-29T14:43:59;27.10;93.00
11025;DHT22;22890;51.820;8.682;2022-07-29T14:46:28;27.10;92.90
11025;DHT22;22890;51.820;8.682;2022-07-29T14:48:55;27.00;92.90
11025;DHT22;22890;51.820;8.682;2022-07-29T14:51:22;27.00;93.00
11025;DHT22;22890;51.820;8.682;2022-07-29T14:53:57;27.00;93.10
11025;DHT22;22890;51.820;8.682;2022-07-29T14:56:24;27.00;93.10
11025;DHT22;22890;51.820;8.682;2022-07-29T14:59:11;27.00;93.30
11025;DHT22;22890;51.820;8.682;2022-07-29T15:01:37;27.00;93.40
11025;DHT22;22890;51.820;8.682;2022-07-29T15:04:04;26.90;93.30
11025;DHT22;22890;51.820;8.682;2022-07-29T15:06:30;26.90;93.70
11025;DHT22;22890;51.820;8.682;2022-07-29T15:08:57;27.00;93.70
11025;DHT22;22890;51.820;8.682;2022-07-29T15:11:24;26.90;93.50
11025;DHT22;22890;51.820;8.682;2022-07-29T15:13:51;27.00;93.50
11025;DHT22;22890;51.820;8.682;2022-07-29T15:16:18;27.00;93.40
11025;DHT22;22890;51.820;8.682;2022-07-29T15:18:45;26.90;93.30
11025;DHT22;22890;51.820;8.682;2022-07-29T15:21:11;26.90;93.20
11025;DHT22;22890;51.820;8.682;2022-07-29T15:23:38;26.90;93.20
11025;DHT22;22890;51.820;8.682;2022-07-29T15:26:05;26.90;93.30
11025;DHT22;22890;51.820;8.682;2022-07-29T15:28:31;24.90;92.60
11025;DHT22;22890;51.820;8.682;2022-07-29T15:30:58;26.90;93.00
11025;DHT22;22890;51.820;8.682;2022-07-29T15:33:25;26.80;93.00
11025;DHT22;22890;51.820;8.682;2022-07-29T15:35:52;26.70;93.00
11025;DHT22;22890;51.820;8.682;2022-07-29T15:38:18;26.70;93.10
11025;DHT22;22890;51.820;8.682;2022-07-29T15:40:54;26.60;93.00
11025;DHT22;22890;51.820;8.682;2022-07-29T15:43:21;26.60;93.00
11025;DHT22;22890;51.820;8.682;2022-07-29T15:45:47;26.50;92.90
11025;DHT22;22890;51.820;8.682;2022-07-29T15:48:33;26.40;93.00
11025;DHT22;22890;51.820;8.682;2022-07-29T15:51:03;26.40;93.30
11025;DHT22;22890;51.820;8.682;2022-07-29T15:53:30;26.40;93.20
11025;DHT22;22890;51.820;8.682;2022-07-29T15:55:58;27.40;93.50
11025;DHT22;22890;51.820;8.682;2022-07-29T15:58:25;26.30;93.10
11025;DHT22;22890;51.820;8.682;2022-07-29T16:00:51;26.30;93.10
11025;DHT22;22890;51.820;8.682;2022-07-29T16:03:18;26.30;93.00
11025;DHT22;22890;51.820;8.682;2022-07-29T16:05:46;26.20;93.00
11025;DHT22;22890;51.820;8.682;2022-07-29T16:08:12;26.20;93.00
11025;DHT22;22890;51.820;8.682;2022-07-29T16:10:39;26.10;92.90
11025;DHT22;22890;51.820;8.682;2022-07-29T16:13:06;26.10;92.90
11025;DHT22;22890;51.820;8.682;2022-07-29T16:15:33;26.00;92.90
11025;DHT22;22890;51.820;8.682;2022-07-29T16:17:59;25.90;93.00
11025;DHT22;22890;51.820;8.682;2022-07-29T16:20:26;25.90;93.40
11025;DHT22;22890;51.820;8.682;2022-07-29T16:22:54;25.80;93.20
11025;DHT22;22890;51.820;8.682;2022-07-29T16:25:20;25.80;93.20
11025;DHT22;22890;51.820;8.682;2022-07-29T16:28:04;25.80;93.20
11025;DHT22;22890;51.820;8.682;2022-07-29T16:30:31;25.70;93.00
11025;DHT22;22890;51.820;8.682;2022-07-29T16:32:57;25.60;92.90
11025;DHT22;22890;51.820;8.682;2022-07-29T16:35:24;25.60;92.90